createdAt,value
2017-12-17T00:00:14.190Z,4.96
2017-12-17T00:00:54.813Z,4.99
2017-12-17T00:01:35.382Z,4.99
2017-12-17T00:02:15.937Z,4.94
2017-12-17T00:02:56.562Z,4.87
2017-12-17T00:03:37.138Z,4.94
2017-12-17T00:04:17.698Z,4.94
2017-12-17T00:04:58.265Z,5.02
2017-12-17T00:05:38.827Z,4.96
2017-12-17T00:06:19.386Z,4.92
2017-12-17T00:06:59.950Z,4.87
2017-12-17T00:07:40.536Z,4.99
2017-12-17T00:08:21.093Z,4.89
2017-12-17T00:09:01.660Z,4.94
2017-12-17T00:09:42.213Z,4.94
2017-12-17T00:10:22.782Z,4.9
2017-12-17T00:11:03.349Z,4.93
2017-12-17T00:11:43.915Z,4.9
2017-12-17T00:12:24.504Z,4.87
2017-12-17T00:13:05.077Z,4.89
2017-12-17T00:13:45.628Z,4.93
2017-12-17T00:14:26.209Z,4.87
2017-12-17T00:15:06.801Z,4.96
2017-12-17T00:15:47.424Z,5
2017-12-17T00:16:27.980Z,4.96
2017-12-17T00:17:08.546Z,4.96
2017-12-17T00:17:49.312Z,4.94
2017-12-17T00:18:29.878Z,4.93
2017-12-17T00:19:10.427Z,5.02
2017-12-17T00:19:50.989Z,5.02
2017-12-17T00:20:31.561Z,5
2017-12-17T00:21:12.131Z,5
2017-12-17T00:21:52.709Z,5
2017-12-17T00:22:33.268Z,5
2017-12-17T00:23:13.849Z,5.05
2017-12-17T00:23:54.479Z,5.07
2017-12-17T00:24:35.038Z,5.12
2017-12-17T00:25:15.601Z,5.11
2017-12-17T00:25:56.166Z,5.08
2017-12-17T00:26:36.746Z,5.02
2017-12-17T00:27:17.309Z,4.99
2017-12-17T00:27:57.887Z,4.99
2017-12-17T00:28:38.476Z,5
2017-12-17T00:29:19.048Z,5.02
2017-12-17T00:29:59.619Z,4.99
2017-12-17T00:30:40.173Z,4.96
2017-12-17T00:31:20.748Z,4.99
2017-12-17T00:32:01.312Z,5.04
2017-12-17T00:32:41.880Z,5.05
2017-12-17T00:33:22.457Z,5.08
2017-12-17T00:34:03.024Z,4.97
2017-12-17T00:34:43.677Z,5.1
2017-12-17T00:35:24.237Z,5.04
2017-12-17T00:36:04.804Z,4.99
2017-12-17T00:36:45.394Z,4.99
2017-12-17T00:37:25.958Z,4.97
2017-12-17T00:38:06.532Z,5.05
2017-12-17T00:38:47.096Z,4.97
2017-12-17T00:39:27.674Z,5.04
2017-12-17T00:40:08.236Z,5
2017-12-17T00:40:48.814Z,5
2017-12-17T00:41:29.382Z,5
2017-12-17T00:42:09.970Z,4.97
2017-12-17T00:42:50.544Z,5
2017-12-17T00:43:31.132Z,4.93
2017-12-17T00:44:11.704Z,4.92
2017-12-17T00:44:52.256Z,4.94
2017-12-17T00:45:32.867Z,4.99
2017-12-17T00:46:13.458Z,4.96
2017-12-17T00:46:54.035Z,4.92
2017-12-17T00:47:34.662Z,4.93
2017-12-17T00:48:15.240Z,4.9
2017-12-17T00:48:55.892Z,5.04
2017-12-17T00:49:36.500Z,4.94
2017-12-17T00:50:17.068Z,5.05
2017-12-17T00:50:57.640Z,5
2017-12-17T00:51:38.194Z,4.93
2017-12-17T00:52:18.806Z,5
2017-12-17T00:52:59.365Z,5.05
2017-12-17T00:53:39.920Z,4.94
2017-12-17T00:54:20.537Z,4.96
2017-12-17T00:55:01.104Z,5
2017-12-17T00:55:41.662Z,4.96
2017-12-17T00:56:22.252Z,5.05
2017-12-17T00:57:02.848Z,5.07
2017-12-17T00:57:43.469Z,5.08
2017-12-17T00:58:24.048Z,5.11
2017-12-17T00:59:04.638Z,5.07
2017-12-17T00:59:45.209Z,5.07
2017-12-17T01:00:25.768Z,5.08
2017-12-17T01:01:06.325Z,5.07
2017-12-17T01:01:46.922Z,5.05
2017-12-17T01:02:27.516Z,5.05
2017-12-17T01:03:08.076Z,5.12
2017-12-17T01:03:48.647Z,5.02
2017-12-17T01:04:29.234Z,5.08
2017-12-17T01:05:09.790Z,5.1
2017-12-17T01:05:50.378Z,5.08
2017-12-17T01:06:30.961Z,5.1
2017-12-17T01:07:11.583Z,5.11
2017-12-17T01:07:52.138Z,5.11
2017-12-17T01:08:32.712Z,5.1
2017-12-17T01:09:13.278Z,5.07
2017-12-17T01:09:53.870Z,5.1
2017-12-17T01:10:34.449Z,5.08
2017-12-17T01:11:15.014Z,5.05
2017-12-17T01:11:55.614Z,5.1
2017-12-17T01:12:36.179Z,5.11
2017-12-17T01:13:16.753Z,5.07
2017-12-17T01:13:57.337Z,5.17
2017-12-17T01:14:37.919Z,5.11
2017-12-17T01:15:18.502Z,5.07
2017-12-17T01:15:59.103Z,5.12
2017-12-17T01:16:39.705Z,5.15
2017-12-17T01:17:20.258Z,5.17
2017-12-17T01:18:00.839Z,5.15
2017-12-17T01:18:41.403Z,5.15
2017-12-17T01:19:21.989Z,5.05
2017-12-17T01:20:02.551Z,5.15
2017-12-17T01:20:43.151Z,5.11
2017-12-17T01:21:23.739Z,5.1
2017-12-17T01:22:04.324Z,5.17
2017-12-17T01:22:44.898Z,5.21
2017-12-17T01:23:25.454Z,5.17
2017-12-17T01:24:06.022Z,5.12
2017-12-17T01:24:46.591Z,5.08
2017-12-17T01:25:27.163Z,5.11
2017-12-17T01:26:07.738Z,5.1
2017-12-17T01:26:48.360Z,5.07
2017-12-17T01:27:28.913Z,5.07
2017-12-17T01:28:09.494Z,5.05
2017-12-17T01:28:50.060Z,5.05
2017-12-17T01:29:30.629Z,5.12
2017-12-17T01:30:11.207Z,5.05
2017-12-17T01:30:51.776Z,5.08
2017-12-17T01:31:32.337Z,5.07
2017-12-17T01:32:12.912Z,5.02
2017-12-17T01:32:53.484Z,5.07
2017-12-17T01:33:34.040Z,5.02
2017-12-17T01:34:14.602Z,5.05
2017-12-17T01:34:55.162Z,5.1
2017-12-17T01:35:35.753Z,5.12
2017-12-17T01:36:16.326Z,5.08
2017-12-17T01:36:56.890Z,5.02
2017-12-17T01:37:37.468Z,5.1
2017-12-17T01:38:18.023Z,5.11
2017-12-17T01:38:58.613Z,5.15
2017-12-17T01:39:39.192Z,5.04
2017-12-17T01:40:19.753Z,5.14
2017-12-17T01:41:00.336Z,5.12
2017-12-17T01:41:40.908Z,5.1
2017-12-17T01:42:21.530Z,5.12
2017-12-17T01:43:02.133Z,4.99
2017-12-17T01:43:42.701Z,5.02
2017-12-17T01:44:23.272Z,5
2017-12-17T01:45:03.844Z,5.12
2017-12-17T01:45:44.415Z,4.97
2017-12-17T01:46:24.987Z,5.04
2017-12-17T01:47:05.555Z,5.05
2017-12-17T01:47:46.134Z,4.93
2017-12-17T01:48:26.730Z,5
2017-12-17T01:49:07.321Z,5
2017-12-17T01:49:47.887Z,5.04
2017-12-17T01:50:28.475Z,5.02
2017-12-17T01:51:09.039Z,5.02
2017-12-17T01:51:49.603Z,5.02
2017-12-17T01:52:30.192Z,5.07
2017-12-17T01:53:10.776Z,5.04
2017-12-17T01:53:51.351Z,5.04
2017-12-17T01:54:31.917Z,4.92
2017-12-17T01:55:12.484Z,5.02
2017-12-17T01:55:53.044Z,4.92
2017-12-17T01:56:33.621Z,4.94
2017-12-17T01:57:14.936Z,5.07
2017-12-17T01:57:55.516Z,4.97
2017-12-17T01:58:36.080Z,4.97
2017-12-17T01:59:16.662Z,4.99
2017-12-17T01:59:57.294Z,5.02
2017-12-17T02:00:37.865Z,4.92
2017-12-17T02:01:18.449Z,5.05
2017-12-17T02:01:59.024Z,4.99
2017-12-17T02:02:39.595Z,4.93
2017-12-17T02:03:20.177Z,4.94
2017-12-17T02:04:00.743Z,4.96
2017-12-17T02:04:41.361Z,4.96
2017-12-17T02:05:21.954Z,5.02
2017-12-17T02:06:02.540Z,4.97
2017-12-17T02:06:43.106Z,4.97
2017-12-17T02:07:23.684Z,4.96
2017-12-17T02:08:04.257Z,4.97
2017-12-17T02:08:44.809Z,4.96
2017-12-17T02:09:25.375Z,4.93
2017-12-17T02:10:05.925Z,4.93
2017-12-17T02:10:46.474Z,4.89
2017-12-17T02:11:27.038Z,4.94
2017-12-17T02:12:07.597Z,5.04
2017-12-17T02:12:48.151Z,5
2017-12-17T02:13:28.729Z,5.02
2017-12-17T02:14:09.302Z,4.93
2017-12-17T02:14:49.864Z,4.93
2017-12-17T02:15:30.430Z,4.93
2017-12-17T02:16:10.994Z,4.9
2017-12-17T02:16:51.563Z,4.93
2017-12-17T02:17:32.129Z,4.97
2017-12-17T02:18:12.708Z,4.97
2017-12-17T02:18:53.261Z,5.02
2017-12-17T02:19:33.825Z,5.05
2017-12-17T02:20:14.418Z,5.04
2017-12-17T02:20:54.985Z,4.99
2017-12-17T02:21:35.554Z,5
2017-12-17T02:22:16.111Z,5.04
2017-12-17T02:22:56.663Z,5.08
2017-12-17T02:23:37.257Z,5.08
2017-12-17T02:24:17.824Z,5.11
2017-12-17T02:24:58.419Z,5.1
2017-12-17T02:25:38.977Z,5.05
2017-12-17T02:26:19.553Z,5.11
2017-12-17T02:27:00.124Z,5.08
2017-12-17T02:27:40.681Z,5.1
2017-12-17T02:28:21.248Z,5.07
2017-12-17T02:29:01.815Z,5.05
2017-12-17T02:29:42.375Z,5.1
2017-12-17T02:30:22.968Z,5.1
2017-12-17T02:31:03.565Z,5.08
2017-12-17T02:31:44.124Z,5.07
2017-12-17T02:32:24.699Z,5.14
2017-12-17T02:33:05.306Z,5.02
2017-12-17T02:33:45.913Z,5.1
2017-12-17T02:34:26.475Z,5.08
2017-12-17T02:35:07.037Z,5.07
2017-12-17T02:35:47.609Z,5.08
2017-12-17T02:36:28.180Z,5.08
2017-12-17T02:37:08.778Z,5
2017-12-17T02:37:49.385Z,5
2017-12-17T02:38:29.963Z,5.04
2017-12-17T02:39:10.532Z,4.99
2017-12-17T02:39:51.098Z,4.89
2017-12-17T02:40:31.669Z,4.99
2017-12-17T02:41:12.230Z,4.94
2017-12-17T02:41:52.804Z,4.99
2017-12-17T02:42:33.374Z,4.96
2017-12-17T02:43:13.939Z,4.92
2017-12-17T02:43:54.534Z,4.94
2017-12-17T02:44:35.115Z,4.9
2017-12-17T02:45:15.687Z,4.93
2017-12-17T02:45:56.248Z,4.94
2017-12-17T02:46:36.867Z,4.92
2017-12-17T02:47:17.451Z,4.93
2017-12-17T02:47:58.021Z,4.89
2017-12-17T02:48:38.594Z,4.84
2017-12-17T02:49:19.154Z,4.9
2017-12-17T02:49:59.721Z,4.87
2017-12-17T02:50:40.309Z,4.87
2017-12-17T02:51:20.882Z,4.93
2017-12-17T02:52:01.446Z,4.93
2017-12-17T02:52:42.031Z,4.96
2017-12-17T02:53:22.614Z,5
2017-12-17T02:54:03.176Z,4.94
2017-12-17T02:54:43.758Z,4.97
2017-12-17T02:55:24.335Z,4.9
2017-12-17T02:56:04.898Z,5
2017-12-17T02:56:45.454Z,4.92
2017-12-17T02:57:26.025Z,4.96
2017-12-17T02:58:06.585Z,4.94
2017-12-17T02:58:47.141Z,5.05
2017-12-17T02:59:27.711Z,4.99
2017-12-17T03:00:08.298Z,5.04
2017-12-17T03:00:48.864Z,5
2017-12-17T03:01:29.412Z,5.02
2017-12-17T03:02:09.981Z,5.07
2017-12-17T03:02:50.540Z,5.04
2017-12-17T03:03:31.121Z,5
2017-12-17T03:04:11.685Z,5.02
2017-12-17T03:04:52.253Z,4.94
2017-12-17T03:05:32.825Z,5.07
2017-12-17T03:06:13.414Z,5
2017-12-17T03:06:53.970Z,5.02
2017-12-17T03:07:34.535Z,4.94
2017-12-17T03:08:15.114Z,4.94
2017-12-17T03:08:55.681Z,4.96
2017-12-17T03:09:36.265Z,4.92
2017-12-17T03:10:16.843Z,4.78
2017-12-17T03:10:57.434Z,4.77
2017-12-17T03:11:38.016Z,4.84
2017-12-17T03:12:18.591Z,4.77
2017-12-17T03:12:59.182Z,4.75
2017-12-17T03:13:39.743Z,4.77
2017-12-17T03:14:20.330Z,4.77
2017-12-17T03:15:00.906Z,4.84
2017-12-17T03:15:41.476Z,4.73
2017-12-17T03:16:22.042Z,4.77
2017-12-17T03:17:02.598Z,4.77
2017-12-17T03:17:43.174Z,4.77
2017-12-17T03:18:23.795Z,4.77
2017-12-17T03:19:04.376Z,4.77
2017-12-17T03:19:44.965Z,4.78
2017-12-17T03:20:25.538Z,4.77
2017-12-17T03:21:06.091Z,4.77
2017-12-17T03:21:46.689Z,4.78
2017-12-17T03:22:27.262Z,4.77
2017-12-17T03:23:07.820Z,4.82
2017-12-17T03:23:48.389Z,4.8
2017-12-17T03:24:28.981Z,4.73
2017-12-17T03:25:09.547Z,4.75
2017-12-17T03:25:50.125Z,4.68
2017-12-17T03:26:30.703Z,4.7
2017-12-17T03:27:11.259Z,4.67
2017-12-17T03:27:51.842Z,4.6
2017-12-17T03:28:32.449Z,4.63
2017-12-17T03:29:13.011Z,4.71
2017-12-17T03:29:53.573Z,4.68
2017-12-17T03:30:34.152Z,4.7
2017-12-17T03:31:14.734Z,4.6
2017-12-17T03:31:55.313Z,4.68
2017-12-17T03:32:35.900Z,4.66
2017-12-17T03:33:16.435Z,4.74
2017-12-17T03:33:57.011Z,4.58
2017-12-17T03:34:37.594Z,4.59
2017-12-17T03:35:18.173Z,4.55
2017-12-17T03:35:58.747Z,4.63
2017-12-17T03:36:39.359Z,4.52
2017-12-17T03:37:19.917Z,4.68
2017-12-17T03:38:00.498Z,4.7
2017-12-17T03:38:41.074Z,4.7
2017-12-17T03:39:21.639Z,4.68
2017-12-17T03:40:02.223Z,4.6
2017-12-17T03:40:42.805Z,4.59
2017-12-17T03:41:23.377Z,4.62
2017-12-17T03:42:03.945Z,4.62
2017-12-17T03:42:44.517Z,4.67
2017-12-17T03:43:25.084Z,4.68
2017-12-17T03:44:05.651Z,4.6
2017-12-17T03:44:46.228Z,4.53
2017-12-17T03:45:26.791Z,4.71
2017-12-17T03:46:07.373Z,4.63
2017-12-17T03:46:47.950Z,4.68
2017-12-17T03:47:28.511Z,4.62
2017-12-17T03:48:09.085Z,4.68
2017-12-17T03:48:49.653Z,4.7
2017-12-17T03:49:32.125Z,4.66
2017-12-17T03:50:12.698Z,4.59
2017-12-17T03:50:53.281Z,4.63
2017-12-17T03:51:33.831Z,4.67
2017-12-17T03:52:14.413Z,4.75
2017-12-17T03:52:55.007Z,4.63
2017-12-17T03:53:35.582Z,4.59
2017-12-17T03:54:16.164Z,4.66
2017-12-17T03:54:56.747Z,4.6
2017-12-17T03:55:37.338Z,4.7
2017-12-17T03:56:17.886Z,4.66
2017-12-17T03:56:58.449Z,4.63
2017-12-17T03:57:39.028Z,4.7
2017-12-17T03:58:19.588Z,4.7
2017-12-17T03:59:00.180Z,4.68
2017-12-17T03:59:40.752Z,4.7
2017-12-17T04:00:21.327Z,4.71
2017-12-17T04:01:01.889Z,4.71
2017-12-17T04:01:42.455Z,4.73
2017-12-17T04:02:23.040Z,4.7
2017-12-17T04:03:03.601Z,4.71
2017-12-17T04:03:44.161Z,4.74
2017-12-17T04:04:24.750Z,4.62
2017-12-17T04:05:05.307Z,4.7
2017-12-17T04:05:45.883Z,4.68
2017-12-17T04:06:26.485Z,4.67
2017-12-17T04:07:07.050Z,4.73
2017-12-17T04:07:47.642Z,4.75
2017-12-17T04:08:28.208Z,4.73
2017-12-17T04:09:08.782Z,4.68
2017-12-17T04:09:49.335Z,4.7
2017-12-17T04:10:29.892Z,4.68
2017-12-17T04:11:10.482Z,4.71
2017-12-17T04:11:51.052Z,4.74
2017-12-17T04:12:31.624Z,4.73
2017-12-17T04:13:12.195Z,4.74
2017-12-17T04:13:52.762Z,4.77
2017-12-17T04:14:33.329Z,4.7
2017-12-17T04:15:13.886Z,4.74
2017-12-17T04:15:54.470Z,4.71
2017-12-17T04:16:35.044Z,4.73
2017-12-17T04:17:15.626Z,4.77
2017-12-17T04:17:56.190Z,4.74
2017-12-17T04:18:36.765Z,4.71
2017-12-17T04:19:17.327Z,4.75
2017-12-17T04:19:57.899Z,4.78
2017-12-17T04:20:38.490Z,4.75
2017-12-17T04:21:19.075Z,4.77
2017-12-17T04:21:59.629Z,4.78
2017-12-17T04:22:40.202Z,4.77
2017-12-17T04:23:20.780Z,4.8
2017-12-17T04:24:01.340Z,4.74
2017-12-17T04:24:41.952Z,4.77
2017-12-17T04:25:22.551Z,4.86
2017-12-17T04:26:03.153Z,4.74
2017-12-17T04:26:43.724Z,4.78
2017-12-17T04:27:24.292Z,4.78
2017-12-17T04:28:04.867Z,4.8
2017-12-17T04:28:45.446Z,4.75
2017-12-17T04:29:26.028Z,4.77
2017-12-17T04:30:06.634Z,4.74
2017-12-17T04:30:47.221Z,4.75
2017-12-17T04:31:27.807Z,4.71
2017-12-17T04:32:08.399Z,4.68
2017-12-17T04:32:48.968Z,4.73
2017-12-17T04:33:29.536Z,4.68
2017-12-17T04:34:10.093Z,4.63
2017-12-17T04:34:50.679Z,4.68
2017-12-17T04:35:31.250Z,4.59
2017-12-17T04:36:11.859Z,4.59
2017-12-17T04:36:52.417Z,4.66
2017-12-17T04:37:32.981Z,4.52
2017-12-17T04:38:13.548Z,4.5
2017-12-17T04:38:54.128Z,4.49
2017-12-17T04:39:34.719Z,4.55
2017-12-17T04:40:15.295Z,4.48
2017-12-17T04:40:55.852Z,4.44
2017-12-17T04:41:36.424Z,4.45
2017-12-17T04:42:16.994Z,4.42
2017-12-17T04:42:57.588Z,4.38
2017-12-17T04:43:38.173Z,4.41
2017-12-17T04:44:18.747Z,4.26
2017-12-17T04:44:59.319Z,4.34
2017-12-17T04:45:39.891Z,4.32
2017-12-17T04:46:20.468Z,4.24
2017-12-17T04:47:01.048Z,4.23
2017-12-17T04:47:41.639Z,4.2
2017-12-17T04:48:22.205Z,4.19
2017-12-17T04:49:02.773Z,4.19
2017-12-17T04:49:43.337Z,4.28
2017-12-17T04:50:23.962Z,4.19
2017-12-17T04:51:04.521Z,4.19
2017-12-17T04:51:45.110Z,4.16
2017-12-17T04:52:25.710Z,4.19
2017-12-17T04:53:06.284Z,4.17
2017-12-17T04:53:46.860Z,4.23
2017-12-17T04:55:59.778Z,4.1
2017-12-17T04:56:40.345Z,4.1
2017-12-17T04:57:20.908Z,4.02
2017-12-17T04:58:01.481Z,4.05
2017-12-17T04:58:42.057Z,4.04
2017-12-17T04:59:22.605Z,4.05
2017-12-17T05:00:03.208Z,4.01
2017-12-17T05:00:43.772Z,3.99
2017-12-17T05:01:24.355Z,3.98
2017-12-17T05:02:04.955Z,4.02
2017-12-17T05:02:45.515Z,4.08
2017-12-17T05:03:26.105Z,4.08
2017-12-17T05:04:06.681Z,4.02
2017-12-17T05:04:47.288Z,4.05
2017-12-17T05:05:27.857Z,4.04
2017-12-17T05:06:09.382Z,4.04
2017-12-17T05:06:49.987Z,4.04
2017-12-17T05:07:30.585Z,3.98
2017-12-17T05:08:11.133Z,4.1
2017-12-17T05:08:51.700Z,4.05
2017-12-17T05:09:32.843Z,4.1
2017-12-17T05:10:13.416Z,4.1
2017-12-17T05:10:54.055Z,4.06
2017-12-17T05:11:34.571Z,4.04
2017-12-17T05:12:15.181Z,4.04
2017-12-17T05:12:55.771Z,3.99
2017-12-17T05:13:36.414Z,4.12
2017-12-17T05:14:17.002Z,3.98
2017-12-17T05:14:57.579Z,3.98
2017-12-17T05:15:38.172Z,3.99
2017-12-17T05:16:18.736Z,4.04
2017-12-17T05:16:59.307Z,3.87
2017-12-17T05:17:39.881Z,3.95
2017-12-17T05:18:20.516Z,3.99
2017-12-17T05:19:01.076Z,4.01
2017-12-17T05:19:41.668Z,3.96
2017-12-17T05:20:22.259Z,3.92
2017-12-17T05:21:02.835Z,3.98
2017-12-17T05:21:43.448Z,3.98
2017-12-17T05:22:24.012Z,3.98
2017-12-17T05:23:04.568Z,4.05
2017-12-17T05:23:45.175Z,3.96
2017-12-17T05:24:25.739Z,4.01
2017-12-17T05:25:06.381Z,3.91
2017-12-17T05:25:46.892Z,3.92
2017-12-17T05:26:27.484Z,4.01
2017-12-17T05:27:08.236Z,4.02
2017-12-17T05:27:48.848Z,3.95
2017-12-17T05:28:29.411Z,4.01
2017-12-17T05:29:09.971Z,3.96
2017-12-17T05:29:50.583Z,4.06
2017-12-17T05:30:31.162Z,4.06
2017-12-17T05:31:11.758Z,4.01
2017-12-17T05:31:52.356Z,4.05
2017-12-17T05:32:32.935Z,4.04
2017-12-17T05:33:13.858Z,4.12
2017-12-17T05:33:54.974Z,4.05
2017-12-17T05:34:35.808Z,4.08
2017-12-17T05:35:16.791Z,4.08
2017-12-17T05:35:57.376Z,4.1
2017-12-17T05:36:37.955Z,4.1
2017-12-17T05:37:18.833Z,4.16
2017-12-17T05:38:00.606Z,4.12
2017-12-17T05:38:41.397Z,4.08
2017-12-17T05:39:21.966Z,4.12
2017-12-17T05:40:02.531Z,4.12
2017-12-17T05:40:43.116Z,4.08
2017-12-17T05:41:23.691Z,4.08
2017-12-17T05:42:04.247Z,4.05
2017-12-17T05:42:44.819Z,4.16
2017-12-17T05:43:25.406Z,4.2
2017-12-17T05:44:05.989Z,4.17
2017-12-17T05:44:46.605Z,4.16
2017-12-17T05:45:27.590Z,4.17
2017-12-17T05:46:08.165Z,4.16
2017-12-17T05:46:48.745Z,4.16
2017-12-17T05:47:29.314Z,4.19
2017-12-17T05:48:09.922Z,4.24
2017-12-17T05:48:50.497Z,4.23
2017-12-17T05:49:31.057Z,4.17
2017-12-17T05:50:11.624Z,4.19
2017-12-17T05:50:52.226Z,4.17
2017-12-17T05:51:32.797Z,4.2
2017-12-17T05:52:13.379Z,4.23
2017-12-17T05:52:53.966Z,4.22
2017-12-17T05:53:34.543Z,4.22
2017-12-17T05:54:15.120Z,4.26
2017-12-17T05:54:55.731Z,4.24
2017-12-17T05:55:36.398Z,4.28
2017-12-17T05:56:16.983Z,4.26
2017-12-17T05:56:57.594Z,4.22
2017-12-17T05:57:38.181Z,4.23
2017-12-17T05:58:18.788Z,4.22
2017-12-17T05:58:59.365Z,4.23
2017-12-17T05:59:40.040Z,4.24
2017-12-17T06:00:20.666Z,4.23
2017-12-17T06:01:01.247Z,4.22
2017-12-17T06:01:41.898Z,4.22
2017-12-17T06:02:22.535Z,4.2
2017-12-17T06:03:03.157Z,4.28
2017-12-17T06:03:43.753Z,4.23
2017-12-17T06:04:24.319Z,4.2
2017-12-17T06:05:04.896Z,4.24
2017-12-17T06:05:45.460Z,4.26
2017-12-17T06:06:26.033Z,4.22
2017-12-17T06:07:06.598Z,4.28
2017-12-17T06:07:47.171Z,4.26
2017-12-17T06:08:27.757Z,4.35
2017-12-17T06:09:08.332Z,4.23
2017-12-17T06:09:48.980Z,4.32
2017-12-17T06:10:29.953Z,4.32
2017-12-17T06:11:10.901Z,4.32
2017-12-17T06:11:51.614Z,4.35
2017-12-17T06:12:32.310Z,4.35
2017-12-17T06:13:12.963Z,4.37
2017-12-17T06:13:53.701Z,4.34
2017-12-17T06:14:34.342Z,4.34
2017-12-17T06:15:14.896Z,4.28
2017-12-17T06:15:55.453Z,4.28
2017-12-17T06:16:36.031Z,4.19
2017-12-17T06:17:16.595Z,4.2
2017-12-17T06:17:57.203Z,4.35
2017-12-17T06:18:38.002Z,4.2
2017-12-17T06:19:18.806Z,4.28
2017-12-17T06:19:59.844Z,4.32
2017-12-17T06:20:40.883Z,4.17
2017-12-17T06:21:21.750Z,4.23
2017-12-17T06:22:02.318Z,4.24
2017-12-17T06:22:42.915Z,4.32
2017-12-17T06:23:23.664Z,4.3
2017-12-17T06:24:04.356Z,4.34
2017-12-17T06:24:45.245Z,4.32
2017-12-17T06:25:26.551Z,4.32
2017-12-17T06:26:07.158Z,4.31
2017-12-17T06:26:47.977Z,4.41
2017-12-17T06:27:28.541Z,4.38
2017-12-17T06:28:09.121Z,4.35
2017-12-17T06:28:49.951Z,4.38
2017-12-17T06:29:30.824Z,4.44
2017-12-17T06:30:11.617Z,4.35
2017-12-17T06:30:52.556Z,4.35
2017-12-17T06:31:33.641Z,4.41
2017-12-17T06:32:14.330Z,4.38
2017-12-17T06:32:55.033Z,4.48
2017-12-17T06:33:35.770Z,4.41
2017-12-17T06:34:16.594Z,4.4
2017-12-17T06:34:57.298Z,4.49
2017-12-17T06:35:38.604Z,4.42
2017-12-17T06:36:19.351Z,4.42
2017-12-17T06:36:59.988Z,4.49
2017-12-17T06:37:40.574Z,4.45
2017-12-17T06:38:21.244Z,4.49
2017-12-17T06:39:01.904Z,4.48
2017-12-17T06:39:42.622Z,4.44
2017-12-17T06:40:23.354Z,4.45
2017-12-17T06:41:04.064Z,4.48
2017-12-17T06:41:44.650Z,4.38
2017-12-17T06:42:25.598Z,4.48
2017-12-17T06:43:06.633Z,4.48
2017-12-17T06:43:47.495Z,4.44
2017-12-17T06:44:28.858Z,4.48
2017-12-17T06:45:09.853Z,4.48
2017-12-17T06:45:50.936Z,4.42
2017-12-17T06:46:31.724Z,4.37
2017-12-17T06:47:13.303Z,4.44
2017-12-17T06:47:53.986Z,4.42
2017-12-17T06:48:35.135Z,4.44
2017-12-17T06:49:16.231Z,4.44
2017-12-17T06:49:57.172Z,4.42
2017-12-17T06:50:37.916Z,4.4
2017-12-17T06:51:18.796Z,4.45
2017-12-17T06:51:59.551Z,4.4
2017-12-17T06:52:40.940Z,4.42
2017-12-17T06:53:22.044Z,4.45
2017-12-17T06:54:02.962Z,4.42
2017-12-17T06:54:44.070Z,4.42
2017-12-17T06:55:25.014Z,4.49
2017-12-17T06:56:05.945Z,4.45
2017-12-17T06:56:46.545Z,4.37
2017-12-17T06:57:27.268Z,4.4
2017-12-17T06:58:08.173Z,4.34
2017-12-17T06:58:48.997Z,4.45
2017-12-17T06:59:29.887Z,4.45
2017-12-17T07:00:10.582Z,4.42
2017-12-17T07:00:51.599Z,4.44
2017-12-17T07:01:32.182Z,4.37
2017-12-17T07:02:13.213Z,4.41
2017-12-17T07:02:53.794Z,4.41
2017-12-17T07:03:34.421Z,4.48
2017-12-17T07:04:15.007Z,4.45
2017-12-17T07:04:55.577Z,4.45
2017-12-17T07:05:36.140Z,4.49
2017-12-17T07:06:16.724Z,4.38
2017-12-17T07:06:57.296Z,4.42
2017-12-17T07:07:38.127Z,4.49
2017-12-17T07:08:18.814Z,4.44
2017-12-17T07:08:59.722Z,4.42
2017-12-17T07:09:40.548Z,4.42
2017-12-17T07:10:21.389Z,4.48
2017-12-17T07:11:02.136Z,4.42
2017-12-17T07:11:42.877Z,4.45
2017-12-17T07:12:23.717Z,4.52
2017-12-17T07:13:04.779Z,4.52
2017-12-17T07:13:45.738Z,4.37
2017-12-17T07:14:26.575Z,4.35
2017-12-17T07:15:07.573Z,4.32
2017-12-17T07:15:48.368Z,4.37
2017-12-17T07:16:29.126Z,4.4
2017-12-17T07:17:10.126Z,4.34
2017-12-17T07:17:51.078Z,4.35
2017-12-17T07:18:31.764Z,4.35
2017-12-17T07:19:12.410Z,4.32
2017-12-17T07:19:54.268Z,4.37
2017-12-17T07:20:34.985Z,4.37
2017-12-17T07:21:15.715Z,4.35
2017-12-17T07:21:56.532Z,4.34
2017-12-17T07:22:37.129Z,4.4
2017-12-17T07:23:18.019Z,4.32
2017-12-17T07:23:58.666Z,4.44
2017-12-17T07:24:39.237Z,4.42
2017-12-17T07:25:19.857Z,4.37
2017-12-17T07:26:00.439Z,4.42
2017-12-17T07:26:41.026Z,4.38
2017-12-17T07:27:21.640Z,4.34
2017-12-17T07:28:02.248Z,4.37
2017-12-17T07:28:42.836Z,4.45
2017-12-17T07:29:23.403Z,4.4
2017-12-17T07:30:03.984Z,4.38
2017-12-17T07:30:44.563Z,4.48
2017-12-17T07:31:25.173Z,4.42
2017-12-17T07:32:05.813Z,4.41
2017-12-17T07:32:46.416Z,4.32
2017-12-17T07:33:26.985Z,4.41
2017-12-17T07:34:07.576Z,4.4
2017-12-17T07:34:48.154Z,4.42
2017-12-17T07:35:28.722Z,4.45
2017-12-17T07:36:09.290Z,4.48
2017-12-17T07:36:49.874Z,4.34
2017-12-17T07:37:30.441Z,4.4
2017-12-17T07:38:11.862Z,4.41
2017-12-17T07:38:52.444Z,4.48
2017-12-17T07:39:33.074Z,4.37
2017-12-17T07:40:13.617Z,4.44
2017-12-17T07:40:54.180Z,4.38
2017-12-17T07:41:34.735Z,4.38
2017-12-17T07:42:15.301Z,4.44
2017-12-17T07:42:55.867Z,4.42
2017-12-17T07:43:36.417Z,4.45
2017-12-17T07:44:17.020Z,4.49
2017-12-17T07:44:57.583Z,4.49
2017-12-17T07:45:38.184Z,4.44
2017-12-17T07:46:18.757Z,4.41
2017-12-17T07:46:59.340Z,4.48
2017-12-17T07:47:39.891Z,4.41
2017-12-17T07:48:20.480Z,4.4
2017-12-17T07:49:01.049Z,4.42
2017-12-17T07:49:41.623Z,4.45
2017-12-17T07:50:22.179Z,4.4
2017-12-17T07:51:02.739Z,4.5
2017-12-17T07:51:43.342Z,4.4
2017-12-17T07:52:23.954Z,4.48
2017-12-17T07:53:04.564Z,4.44
2017-12-17T07:53:45.168Z,4.35
2017-12-17T07:54:25.763Z,4.32
2017-12-17T07:55:06.326Z,4.32
2017-12-17T07:55:47.037Z,4.35
2017-12-17T07:56:27.558Z,4.3
2017-12-17T07:57:08.124Z,4.38
2017-12-17T07:57:48.698Z,4.32
2017-12-17T07:58:29.264Z,4.35
2017-12-17T07:59:09.844Z,4.32
2017-12-17T07:59:50.410Z,4.31
2017-12-17T08:00:31.360Z,4.35
2017-12-17T08:01:11.941Z,4.35
2017-12-17T08:01:52.550Z,4.34
2017-12-17T08:02:33.169Z,4.31
2017-12-17T08:03:13.747Z,4.37
2017-12-17T08:03:54.342Z,4.32
2017-12-17T08:04:34.919Z,4.32
2017-12-17T08:05:15.552Z,4.31
2017-12-17T08:05:56.134Z,4.31
2017-12-17T08:06:36.778Z,4.32
2017-12-17T08:07:17.356Z,4.35
2017-12-17T08:07:57.963Z,4.23
2017-12-17T08:08:38.561Z,4.23
2017-12-17T08:09:19.169Z,4.24
2017-12-17T08:09:59.775Z,4.26
2017-12-17T08:10:40.640Z,4.2
2017-12-17T08:11:21.284Z,4.32
2017-12-17T08:12:01.901Z,4.26
2017-12-17T08:12:42.477Z,4.22
2017-12-17T08:13:23.271Z,4.2
2017-12-17T08:14:03.852Z,4.3
2017-12-17T08:14:44.435Z,4.24
2017-12-17T08:15:25.035Z,4.3
2017-12-17T08:16:05.674Z,4.26
2017-12-17T08:16:46.314Z,4.3
2017-12-17T08:17:26.869Z,4.23
2017-12-17T08:18:07.497Z,4.24
2017-12-17T08:18:48.079Z,4.26
2017-12-17T08:19:28.717Z,4.19
2017-12-17T08:20:09.350Z,4.23
2017-12-17T08:20:49.945Z,4.24
2017-12-17T08:21:30.564Z,4.28
2017-12-17T08:22:11.143Z,4.24
2017-12-17T08:22:51.924Z,4.26
2017-12-17T08:23:32.518Z,4.22
2017-12-17T08:24:13.085Z,4.26
2017-12-17T08:24:53.709Z,4.23
2017-12-17T08:25:34.341Z,4.28
2017-12-17T08:26:14.931Z,4.2
2017-12-17T08:26:55.515Z,4.26
2017-12-17T08:27:36.135Z,4.23
2017-12-17T08:28:16.773Z,4.2
2017-12-17T08:28:57.402Z,4.26
2017-12-17T08:29:37.994Z,4.3
2017-12-17T08:30:18.640Z,4.28
2017-12-17T08:30:59.294Z,4.24
2017-12-17T08:31:39.904Z,4.22
2017-12-17T08:32:20.495Z,4.22
2017-12-17T08:33:01.077Z,4.23
2017-12-17T08:33:41.761Z,4.23
2017-12-17T08:34:22.335Z,4.26
2017-12-17T08:35:02.938Z,4.23
2017-12-17T08:35:43.568Z,4.23
2017-12-17T08:36:24.159Z,4.3
2017-12-17T08:37:04.755Z,4.23
2017-12-17T08:37:45.339Z,4.22
2017-12-17T08:38:25.991Z,4.23
2017-12-17T08:39:06.523Z,4.19
2017-12-17T08:39:47.137Z,4.14
2017-12-17T08:40:27.732Z,4.22
2017-12-17T08:41:08.294Z,4.22
2017-12-17T08:41:48.866Z,4.16
2017-12-17T08:42:29.456Z,4.17
2017-12-17T08:43:10.135Z,4.22
2017-12-17T08:43:50.757Z,4.3
2017-12-17T08:44:31.367Z,4.24
2017-12-17T08:45:11.973Z,4.26
2017-12-17T08:45:52.561Z,4.23
2017-12-17T08:46:33.177Z,4.23
2017-12-17T08:47:13.761Z,4.19
2017-12-17T08:47:54.383Z,4.2
2017-12-17T08:48:34.990Z,4.28
2017-12-17T08:49:15.579Z,4.2
2017-12-17T08:49:56.563Z,4.2
2017-12-17T08:50:37.689Z,4.32
2017-12-17T08:51:18.318Z,4.32
2017-12-17T08:51:59.136Z,4.22
2017-12-17T08:52:39.786Z,4.23
2017-12-17T08:53:20.421Z,4.34
2017-12-17T08:54:01.629Z,4.34
2017-12-17T08:54:42.351Z,4.34
2017-12-17T08:55:23.109Z,4.35
2017-12-17T08:56:03.989Z,4.35
2017-12-17T08:56:44.640Z,4.42
2017-12-17T08:57:25.638Z,4.32
2017-12-17T08:58:06.650Z,4.24
2017-12-17T08:58:47.312Z,4.32
2017-12-17T08:59:28.257Z,4.35
2017-12-17T09:00:08.865Z,4.31
2017-12-17T09:00:49.565Z,4.3
2017-12-17T09:01:30.766Z,4.31
2017-12-17T09:02:11.790Z,4.38
2017-12-17T09:02:52.697Z,4.38
2017-12-17T09:03:33.470Z,4.41
2017-12-17T09:04:14.767Z,4.38
2017-12-17T09:04:56.279Z,4.38
2017-12-17T09:05:37.332Z,4.42